Time;durP1;ratioP1;P1;durP2;ratioP2;P2;SDS_P1;SDS_P2;PMS_P1;PMS_P2;Temp;Humidity;BMP_temperature;BMP_pressure;BME280_temperature;BME280_humidity;BME280_pressure;Samples;Min_cycle;Max_cycle;Signal;HPM_P1;HPM_P2
2023/10/30 00:02:14;;;;;;;;;;;;;;;9.78;100.00;99054.97;4992397;28;20397;-84
2023/10/30 00:04:47;;;;;;;;;;;;;;;9.81;100.00;99061.69;4992527;28;19922;-85
2023/10/30 00:07:15;;;;;;;;;;;;;;;9.77;100.00;99075.09;4968689;28;19922;-81
2023/10/30 00:09:43;;;;;;;;;;;;;;;9.91;100.00;99066.03;4988867;28;19925;-84
2023/10/30 00:12:11;;;;;;;;;;;;;;;9.89;100.00;99077.22;4983549;28;19921;-85
2023/10/30 00:14:39;;;;;;;;;;;;;;;9.88;100.00;99070.97;4982161;28;19929;-83
2023/10/30 00:17:14;;;;;;;;;;;;;;;9.92;100.00;99078.53;4991815;28;19965;-83
2023/10/30 00:19:47;;;;;;;;;;;;;;;9.97;100.00;99087.34;4994948;28;19929;-86
2023/10/30 00:22:15;;;;;;;;;;;;;;;9.94;100.00;99095.31;4972551;28;20374;-86
2023/10/30 00:24:43;;;;;;;;;;;;;;;9.99;100.00;99087.00;4995240;28;20510;-84
2023/10/30 00:27:11;;;;;;;;;;;;;;;9.94;100.00;99084.44;4993980;28;19930;-83
2023/10/30 00:29:40;;;;;;;;;;;;;;;9.96;100.00;99101.25;4985053;28;19922;-85
2023/10/30 00:32:09;;;;;;;;;;;;;;;9.97;100.00;99106.34;4994031;28;19998;-83
2023/10/30 00:34:43;;;;;;;;;;;;;;;9.99;100.00;99100.59;4983218;28;19922;-85
2023/10/30 00:37:16;;;;;;;;;;;;;;;9.94;100.00;99112.41;4992046;28;19929;-83
2023/10/30 00:39:44;;;;;;;;;;;;;;;10.05;100.00;99104.75;4992570;28;19922;-84
2023/10/30 00:42:12;;;;;;;;;;;;;;;10.09;100.00;99103.03;4994503;28;19933;-84
2023/10/30 00:44:45;;;;;;;;;;;;;;;10.12;100.00;99115.19;4996055;28;19922;-86
2023/10/30 00:47:19;;;;;;;;;;;;;;;10.07;100.00;99127.00;4990713;28;20294;-85
2023/10/30 00:49:48;;;;;;;;;;;;;;;10.13;100.00;99135.81;4993263;28;19925;-87
2023/10/30 00:52:21;;;;;;;;;;;;;;;10.12;100.00;99126.06;4971796;28;20547;-85
2023/10/30 00:54:49;;;;;;;;;;;;;;;10.03;100.00;99131.47;4988193;28;19922;-80
2023/10/30 00:57:17;;;;;;;;;;;;;;;10.14;100.00;99137.44;4995350;28;19929;-84
2023/10/30 00:59:50;;;;;;;;;;;;;;;10.06;100.00;99144.44;4993385;28;19945;-87
2023/10/30 01:02:18;;;;;;;;;;;;;;;10.09;100.00;99151.94;4998237;28;19921;-81
2023/10/30 01:04:52;;;;;;;;;;;;;;;10.09;100.00;99148.44;4990915;28;19976;-85
2023/10/30 01:07:20;;;;;;;;;;;;;;;10.06;100.00;99152.59;4991708;28;20299;-86
2023/10/30 01:09:49;;;;;;;;;;;;;;;10.08;100.00;99158.53;4994154;28;19930;-85
2023/10/30 01:12:17;;;;;;;;;;;;;;;10.01;100.00;99166.31;4978033;28;19921;-85
2023/10/30 01:14:44;;;;;;;;;;;;;;;9.96;100.00;99161.03;4988941;28;19922;-87
2023/10/30 01:17:12;;;;;;;;;;;;;;;10.01;100.00;99175.28;4993039;28;19937;-83
2023/10/30 01:19:40;;;;;;;;;;;;;;;10.00;100.00;99183.75;4994085;28;19921;-85
2023/10/30 01:22:11;;;;;;;;;;;;;;;9.97;100.00;99174.28;4977382;28;19921;-84
2023/10/30 01:24:38;;;;;;;;;;;;;;;9.99;100.00;99182.91;4989459;28;19922;-85
2023/10/30 01:27:11;;;;;;;;;;;;;;;9.95;100.00;99183.88;4986407;28;19921;-84
2023/10/30 01:29:39;;;;;;;;;;;;;;;9.96;100.00;99185.47;4993826;28;19932;-83
2023/10/30 01:32:08;;;;;;;;;;;;;;;9.98;100.00;99188.69;4993215;28;20294;-84
2023/10/30 01:34:41;;;;;;;;;;;;;;;9.93;100.00;99180.66;4989810;28;20358;-82
2023/10/30 01:37:15;;;;;;;;;;;;;;;9.85;100.00;99174.06;4994540;28;19925;-84
2023/10/30 01:39:48;;;;;;;;;;;;;;;9.76;100.00;99184.88;4994049;28;20627;-83
2023/10/30 01:42:17;;;;;;;;;;;;;;;9.66;100.00;99191.38;4989290;28;19921;-84
2023/10/30 01:44:52;;;;;;;;;;;;;;;9.63;100.00;99204.78;4993197;28;19922;-81
2023/10/30 01:47:26;;;;;;;;;;;;;;;9.75;100.00;99206.91;4984971;28;19926;-83
2023/10/30 01:49:54;;;;;;;;;;;;;;;9.69;100.00;99207.06;4988230;28;19936;-83
2023/10/30 01:52:24;;;;;;;;;;;;;;;9.62;100.00;99216.75;4988888;28;19921;-84
2023/10/30 01:54:52;;;;;;;;;;;;;;;9.53;100.00;99212.06;4994033;28;19944;-85
2023/10/30 01:57:27;;;;;;;;;;;;;;;9.43;100.00;99209.59;4989168;28;20370;-83
2023/10/30 01:59:56;;;;;;;;;;;;;;;9.42;100.00;99220.75;4992261;28;19922;-85
2023/10/30 02:02:26;;;;;;;;;;;;;;;9.43;100.00;99228.63;4995666;28;19925;-84
2023/10/30 02:04:59;;;;;;;;;;;;;;;9.43;100.00;99231.34;4988342;28;19922;-84
2023/10/30 02:07:35;;;;;;;;;;;;;;;9.32;100.00;99222.63;4981926;28;19922;-83
2023/10/30 02:10:08;;;;;;;;;;;;;;;9.35;100.00;99219.28;4986797;28;19922;-84
2023/10/30 02:12:36;;;;;;;;;;;;;;;9.30;100.00;99234.88;4993938;28;19928;-85
2023/10/30 02:15:04;;;;;;;;;;;;;;;9.26;100.00;99236.59;4976270;28;20515;-84
2023/10/30 02:17:37;;;;;;;;;;;;;;;9.28;100.00;99237.09;4990153;28;19922;-83
2023/10/30 02:20:11;;;;;;;;;;;;;;;9.23;100.00;99240.75;4958290;28;20383;-82
2023/10/30 02:22:40;;;;;;;;;;;;;;;9.32;100.00;99247.06;4992598;28;19922;-84
2023/10/30 02:25:08;;;;;;;;;;;;;;;9.21;100.00;99253.81;4992730;28;19945;-85
2023/10/30 02:27:38;;;;;;;;;;;;;;;9.24;100.00;99246.97;4992878;28;20398;-82
2023/10/30 02:30:11;;;;;;;;;;;;;;;9.22;100.00;99235.63;4988539;28;19921;-84
2023/10/30 02:32:46;;;;;;;;;;;;;;;9.23;100.00;99250.81;4982640;28;20622;-83
2023/10/30 02:35:20;;;;;;;;;;;;;;;9.18;100.00;99251.69;4973129;28;19929;-83
2023/10/30 02:37:48;;;;;;;;;;;;;;;9.12;100.00;99258.38;4988500;28;19926;-84
2023/10/30 02:40:16;;;;;;;;;;;;;;;9.06;100.00;99256.84;4970321;28;19922;-85
2023/10/30 02:42:46;;;;;;;;;;;;;;;9.11;100.00;99251.31;5001809;28;20301;-85
2023/10/30 02:45:19;;;;;;;;;;;;;;;9.07;100.00;99253.03;4972974;28;19921;-85
2023/10/30 02:47:51;;;;;;;;;;;;;;;9.07;100.00;99255.75;4992715;28;19922;-83
2023/10/30 02:50:19;;;;;;;;;;;;;;;9.03;100.00;99255.53;4992859;28;19922;-84
2023/10/30 02:52:52;;;;;;;;;;;;;;;9.10;100.00;99252.41;4984761;28;20499;-84
2023/10/30 02:55:25;;;;;;;;;;;;;;;9.05;100.00;99261.50;4986264;28;19933;-84
2023/10/30 02:57:55;;;;;;;;;;;;;;;9.07;100.00;99256.53;4993065;28;19921;-84
2023/10/30 03:00:28;;;;;;;;;;;;;;;9.07;100.00;99263.91;4985974;28;19926;-83
2023/10/30 03:02:56;;;;;;;;;;;;;;;9.06;100.00;99262.28;4993235;28;20407;-87
2023/10/30 03:05:29;;;;;;;;;;;;;;;9.12;100.00;99261.06;4993330;28;20285;-84
2023/10/30 03:07:57;;;;;;;;;;;;;;;9.17;100.00;99269.13;4992444;28;20285;-84
2023/10/30 03:10:30;;;;;;;;;;;;;;;9.16;100.00;99267.50;4993427;28;20793;-83
2023/10/30 03:13:04;;;;;;;;;;;;;;;9.15;100.00;99266.69;4991717;28;20366;-85
2023/10/30 03:15:37;;;;;;;;;;;;;;;9.14;100.00;99275.94;4991964;28;19929;-83
2023/10/30 03:18:05;;;;;;;;;;;;;;;9.16;100.00;99273.72;4991883;28;19921;-85
2023/10/30 03:20:38;;;;;;;;;;;;;;;9.19;100.00;99275.81;4991681;28;20266;-85
2023/10/30 03:23:06;;;;;;;;;;;;;;;9.21;100.00;99282.88;4992589;28;20289;-84
2023/10/30 03:25:34;;;;;;;;;;;;;;;9.18;100.00;99276.13;4991815;28;19922;-85
2023/10/30 03:28:08;;;;;;;;;;;;;;;9.22;100.00;99277.13;4992024;28;19930;-85
2023/10/30 03:30:37;;;;;;;;;;;;;;;9.13;100.00;99270.84;4991642;28;19933;-85
2023/10/30 03:33:09;;;;;;;;;;;;;;;9.11;100.00;99276.53;4992926;28;19929;-86
2023/10/30 03:35:38;;;;;;;;;;;;;;;9.21;100.00;99264.69;4991848;28;19926;-85
2023/10/30 03:38:06;;;;;;;;;;;;;;;9.21;100.00;99269.28;4992775;28;19937;-83
2023/10/30 03:40:35;;;;;;;;;;;;;;;9.14;100.00;99261.56;4992683;28;19925;-83
2023/10/30 03:43:09;;;;;;;;;;;;;;;9.06;100.00;99271.25;4974462;28;20378;-83
2023/10/30 03:45:43;;;;;;;;;;;;;;;9.04;100.00;99273.44;4988896;28;19937;-85
2023/10/30 03:48:16;;;;;;;;;;;;;;;9.04;100.00;99270.72;4991236;28;19962;-83
2023/10/30 03:50:44;;;;;;;;;;;;;;;9.07;100.00;99277.47;4994546;28;19929;-85
2023/10/30 03:53:12;;;;;;;;;;;;;;;9.13;100.00;99268.91;4999013;28;19922;-86
2023/10/30 03:55:45;;;;;;;;;;;;;;;9.04;100.00;99278.06;4994092;28;19922;-84
2023/10/30 03:58:15;;;;;;;;;;;;;;;9.00;100.00;99270.56;4994975;28;20275;-84
2023/10/30 04:00:43;;;;;;;;;;;;;;;9.07;100.00;99280.19;4989854;28;19937;-84
2023/10/30 04:03:16;;;;;;;;;;;;;;;9.15;100.00;99279.47;4992909;28;20401;-83
2023/10/30 04:05:49;;;;;;;;;;;;;;;9.24;100.00;99280.34;4991539;28;19925;-83
2023/10/30 04:08:22;;;;;;;;;;;;;;;9.18;100.00;99270.69;4988318;28;19921;-84
2023/10/30 04:10:56;;;;;;;;;;;;;;;9.37;100.00;99276.00;4993605;28;19922;-86
2023/10/30 04:13:31;;;;;;;;;;;;;;;9.31;100.00;99275.31;4991847;28;19922;-83
2023/10/30 04:16:04;;;;;;;;;;;;;;;9.27;100.00;99289.81;4996300;28;20556;-84
2023/10/30 04:18:32;;;;;;;;;;;;;;;9.34;100.00;99284.75;4996398;28;19922;-82
2023/10/30 04:21:00;;;;;;;;;;;;;;;9.28;100.00;99281.34;4996418;28;19922;-82
2023/10/30 04:23:28;;;;;;;;;;;;;;;9.24;100.00;99279.53;4989942;28;19922;-82
2023/10/30 04:26:01;;;;;;;;;;;;;;;9.28;100.00;99278.63;4988673;28;19921;-84
2023/10/30 04:28:31;;;;;;;;;;;;;;;9.25;100.00;99281.94;4999728;28;19944;-84
2023/10/30 04:30:59;;;;;;;;;;;;;;;9.30;100.00;99289.19;4989340;28;19922;-81
2023/10/30 04:33:31;;;;;;;;;;;;;;;9.28;100.00;99289.50;4977748;28;19932;-84
2023/10/30 04:36:01;;;;;;;;;;;;;;;9.28;100.00;99294.91;4994611;28;19921;-82
2023/10/30 04:38:30;;;;;;;;;;;;;;;9.18;100.00;99295.13;4994243;28;19922;-82
2023/10/30 04:40:58;;;;;;;;;;;;;;;9.20;100.00;99292.94;4995942;28;19921;-83
2023/10/30 04:43:26;;;;;;;;;;;;;;;9.13;100.00;99301.47;4975081;28;20290;-82
2023/10/30 04:46:00;;;;;;;;;;;;;;;9.11;100.00;99300.97;4993423;28;20295;-84
2023/10/30 04:48:33;;;;;;;;;;;;;;;9.09;100.00;99296.97;4982578;28;19922;-83
2023/10/30 04:51:01;;;;;;;;;;;;;;;9.09;100.00;99299.69;5001172;28;19944;-82
2023/10/30 04:53:29;;;;;;;;;;;;;;;9.13;100.00;99303.41;4994572;28;19922;-83
2023/10/30 04:55:57;;;;;;;;;;;;;;;9.12;100.00;99290.94;4969791;28;19926;-83
2023/10/30 04:58:25;;;;;;;;;;;;;;;9.06;100.00;99309.22;4994134;28;19944;-83
2023/10/30 05:00:53;;;;;;;;;;;;;;;9.08;100.00;99300.78;4997057;28;20370;-84
2023/10/30 05:03:22;;;;;;;;;;;;;;;9.05;100.00;99304.13;4991296;28;19921;-83
2023/10/30 05:05:50;;;;;;;;;;;;;;;9.05;100.00;99302.19;4996170;28;19922;-83
2023/10/30 05:08:24;;;;;;;;;;;;;;;9.01;100.00;99304.69;4986851;28;19929;-85
2023/10/30 05:10:52;;;;;;;;;;;;;;;9.02;100.00;99310.94;4984225;28;19921;-84
2023/10/30 05:13:25;;;;;;;;;;;;;;;9.04;100.00;99308.72;4993544;28;19941;-82
2023/10/30 05:15:56;;;;;;;;;;;;;;;9.01;100.00;99312.03;4987613;28;19929;-82
2023/10/30 05:18:26;;;;;;;;;;;;;;;8.98;100.00;99310.75;4993709;28;19925;-85
2023/10/30 05:20:53;;;;;;;;;;;;;;;8.95;100.00;99310.53;4981569;28;19925;-84
2023/10/30 05:23:26;;;;;;;;;;;;;;;9.01;100.00;99322.91;4979574;28;19994;-83
2023/10/30 05:25:59;;;;;;;;;;;;;;;8.93;100.00;99307.31;5000798;28;19933;-82
2023/10/30 05:28:27;;;;;;;;;;;;;;;8.87;100.00;99306.63;4995154;28;19922;-84
2023/10/30 05:31:05;;;;;;;;;;;;;;;8.88;100.00;99313.66;4999497;28;19929;-83
2023/10/30 05:33:40;;;;;;;;;;;;;;;8.85;100.00;99301.50;4970172;28;19922;-84
2023/10/30 05:36:08;;;;;;;;;;;;;;;8.79;100.00;99308.13;4995072;28;19929;-83
2023/10/30 05:38:41;;;;;;;;;;;;;;;8.77;100.00;99302.22;4989317;28;19922;-82
2023/10/30 05:41:09;;;;;;;;;;;;;;;8.78;100.00;99311.16;4994771;28;19929;-83
2023/10/30 05:43:37;;;;;;;;;;;;;;;8.75;100.00;99312.53;4978445;28;19929;-83
2023/10/30 05:46:09;;;;;;;;;;;;;;;8.77;100.00;99307.63;4993215;28;19933;-84
2023/10/30 05:48:44;;;;;;;;;;;;;;;8.85;100.00;99316.97;4995522;28;19998;-83
2023/10/30 05:51:12;;;;;;;;;;;;;;;8.84;100.00;99328.94;4994576;28;20425;-83
2023/10/30 05:53:41;;;;;;;;;;;;;;;8.79;100.00;99324.41;4996878;28;20363;-82
2023/10/30 05:56:09;;;;;;;;;;;;;;;8.80;100.00;99334.16;4994522;28;19929;-84
2023/10/30 05:58:41;;;;;;;;;;;;;;;8.81;100.00;99340.38;4994007;28;19922;-82
2023/10/30 06:01:09;;;;;;;;;;;;;;;8.87;100.00;99344.63;4991832;28;19933;-84
2023/10/30 06:03:44;;;;;;;;;;;;;;;8.85;100.00;99353.06;4994434;28;19921;-83
2023/10/30 06:06:17;;;;;;;;;;;;;;;8.78;100.00;99346.41;4989188;28;20310;-82
2023/10/30 06:08:49;;;;;;;;;;;;;;;8.79;100.00;99348.81;4988113;28;20409;-84
2023/10/30 06:11:18;;;;;;;;;;;;;;;8.88;100.00;99348.94;4992265;28;20648;-83
2023/10/30 06:13:45;;;;;;;;;;;;;;;8.81;100.00;99356.66;4990564;28;20537;-81
2023/10/30 06:16:18;;;;;;;;;;;;;;;8.83;100.00;99363.38;4989023;28;19922;-85
2023/10/30 06:18:47;;;;;;;;;;;;;;;8.78;100.00;99355.38;4993751;28;19928;-83
2023/10/30 06:21:15;;;;;;;;;;;;;;;8.79;100.00;99348.81;4992102;28;19929;-82
2023/10/30 06:23:43;;;;;;;;;;;;;;;8.82;100.00;99342.81;4984854;28;19921;-83
2023/10/30 06:26:16;;;;;;;;;;;;;;;8.78;100.00;99358.09;4991875;28;19922;-83
2023/10/30 06:28:44;;;;;;;;;;;;;;;8.78;100.00;99358.09;4996924;28;20290;-83
2023/10/30 06:31:16;;;;;;;;;;;;;;;8.77;100.00;99345.63;4996559;28;19929;-86
2023/10/30 06:33:51;;;;;;;;;;;;;;;8.92;100.00;99354.56;4993396;28;19921;-83
2023/10/30 06:36:23;;;;;;;;;;;;;;;8.91;100.00;99356.47;4993971;28;19922;-82
2023/10/30 06:38:51;;;;;;;;;;;;;;;8.93;100.00;99359.66;4987271;28;19921;-83
2023/10/30 06:41:24;;;;;;;;;;;;;;;8.90;100.00;99367.63;4993787;28;20285;-82
2023/10/30 06:43:52;;;;;;;;;;;;;;;8.92;100.00;99370.81;4974587;28;20283;-83
2023/10/30 06:46:25;;;;;;;;;;;;;;;8.84;100.00;99366.91;4975217;28;19922;-82
2023/10/30 06:48:54;;;;;;;;;;;;;;;8.87;100.00;99374.44;4994525;28;19922;-83
2023/10/30 06:51:22;;;;;;;;;;;;;;;8.93;100.00;99384.09;4997069;28;19937;-81
2023/10/30 06:53:50;;;;;;;;;;;;;;;8.96;100.00;99383.50;4994598;28;19925;-82
2023/10/30 06:56:18;;;;;;;;;;;;;;;9.01;100.00;99385.31;4992611;28;19950;-82
2023/10/30 06:58:51;;;;;;;;;;;;;;;8.97;100.00;99385.09;4997230;28;20389;-83
2023/10/30 07:01:19;;;;;;;;;;;;;;;8.93;100.00;99386.81;4987362;28;19945;-85
2023/10/30 07:03:47;;;;;;;;;;;;;;;8.97;100.00;99385.09;4991589;28;19940;-82
2023/10/30 07:06:17;;;;;;;;;;;;;;;8.97;100.00;99395.16;4992869;28;19926;-83
2023/10/30 07:08:49;;;;;;;;;;;;;;;9.05;100.00;99401.81;4991589;28;19921;-82
2023/10/30 07:11:22;;;;;;;;;;;;;;;9.10;100.00;99399.81;4991817;28;19969;-83
2023/10/30 07:13:50;;;;;;;;;;;;;;;9.06;100.00;99406.94;4998267;28;19922;-83
2023/10/30 07:16:24;;;;;;;;;;;;;;;9.06;100.00;99406.09;4991529;28;19921;-83
2023/10/30 07:18:57;;;;;;;;;;;;;;;9.07;100.00;99413.94;4996235;28;19921;-83
2023/10/30 07:21:28;;;;;;;;;;;;;;;9.09;100.00;99413.66;5000229;28;19921;-84
2023/10/30 07:23:56;;;;;;;;;;;;;;;9.17;100.00;99415.69;4990731;28;19929;-82
2023/10/30 07:26:24;;;;;;;;;;;;;;;9.17;100.00;99413.75;4990047;28;20405;-84
2023/10/30 07:28:53;;;;;;;;;;;;;;;9.17;100.00;99411.06;4969999;28;19929;-83
2023/10/30 07:31:21;;;;;;;;;;;;;;;9.13;100.00;99420.91;4997199;28;19926;-82
2023/10/30 07:33:54;;;;;;;;;;;;;;;9.28;100.00;99430.66;4997398;28;19926;-82
2023/10/30 07:36:29;;;;;;;;;;;;;;;9.24;100.00;99423.41;4991970;28;19926;-83
2023/10/30 07:38:56;;;;;;;;;;;;;;;9.26;100.00;99424.72;4994279;28;19946;-84
2023/10/30 07:41:29;;;;;;;;;;;;;;;9.29;100.00;99432.25;4994371;28;19929;-85
2023/10/30 07:44:02;;;;;;;;;;;;;;;9.28;100.00;99433.38;4996401;28;20319;-81
2023/10/30 07:46:36;;;;;;;;;;;;;;;9.25;100.00;99428.53;4992032;28;19994;-85
2023/10/30 07:49:06;;;;;;;;;;;;;;;9.27;100.00;99431.75;4990383;28;19928;-85
2023/10/30 07:51:35;;;;;;;;;;;;;;;9.32;100.00;99434.38;4994555;28;19925;-86
2023/10/30 07:54:08;;;;;;;;;;;;;;;9.33;100.00;99435.19;4985645;28;19926;-83
2023/10/30 07:56:36;;;;;;;;;;;;;;;9.29;100.00;99429.53;4992719;28;19922;-83
2023/10/30 07:59:05;;;;;;;;;;;;;;;9.21;100.00;99443.84;4988569;28;20279;-84
2023/10/30 08:01:39;;;;;;;;;;;;;;;9.23;100.00;99440.81;4992746;28;20386;-82
2023/10/30 08:04:09;;;;;;;;;;;;;;;9.13;100.00;99436.41;4996335;28;20270;-83
2023/10/30 08:06:43;;;;;;;;;;;;;;;9.19;100.00;99454.19;4991173;28;19930;-82
2023/10/30 08:09:12;;;;;;;;;;;;;;;9.25;100.00;99452.97;4995876;28;19929;-82
2023/10/30 08:11:40;;;;;;;;;;;;;;;9.20;100.00;99453.09;4990210;28;19922;-83
2023/10/30 08:14:07;;;;;;;;;;;;;;;9.17;100.00;99454.47;4990785;28;19922;-82
2023/10/30 08:16:40;;;;;;;;;;;;;;;9.21;100.00;99453.88;4989840;28;19929;-82
2023/10/30 08:19:08;;;;;;;;;;;;;;;9.25;100.00;99461.09;4989478;28;19922;-83
2023/10/30 08:21:41;;;;;;;;;;;;;;;9.27;100.00;99458.13;4993307;28;19922;-80
2023/10/30 08:24:11;;;;;;;;;;;;;;;9.36;100.00;99469.84;4993366;28;20779;-84
2023/10/30 08:26:39;;;;;;;;;;;;;;;9.39;100.00;99469.28;4974457;28;19929;-82
2023/10/30 08:29:12;;;;;;;;;;;;;;;9.47;100.00;99476.72;4936267;28;20401;-85
2023/10/30 08:31:45;;;;;;;;;;;;;;;9.53;100.00;99469.28;4972068;28;19945;-87
2023/10/30 08:34:13;;;;;;;;;;;;;;;9.65;100.00;99469.56;4974690;28;19941;-87
2023/10/30 08:36:46;;;;;;;;;;;;;;;9.68;100.00;99466.25;4973302;28;19941;-88
2023/10/30 08:39:15;;;;;;;;;;;;;;;9.82;100.00;99463.50;4955138;28;19929;-86
2023/10/30 08:41:43;;;;;;;;;;;;;;;9.85;100.00;99462.88;4969761;28;20671;-87
2023/10/30 08:44:12;;;;;;;;;;;;;;;9.96;100.00;99457.25;4967684;28;19930;-87
2023/10/30 08:46:40;;;;;;;;;;;;;;;10.06;100.00;99459.72;4969968;28;19929;-85
2023/10/30 08:49:12;;;;;;;;;;;;;;;10.17;100.00;99465.75;4954035;28;20870;-84
2023/10/30 08:51:41;;;;;;;;;;;;;;;10.19;100.00;99467.03;4977668;28;20366;-87
2023/10/30 08:54:09;;;;;;;;;;;;;;;10.26;100.00;99472.06;4976452;28;20961;-87
2023/10/30 08:56:39;;;;;;;;;;;;;;;10.29;100.00;99476.06;4977162;28;20618;-84
2023/10/30 08:59:07;;;;;;;;;;;;;;;10.39;100.00;99470.44;4973197;28;19930;-89
2023/10/30 09:01:35;;;;;;;;;;;;;;;10.55;100.00;99470.88;4974063;28;20002;-89
2023/10/30 09:04:10;;;;;;;;;;;;;;;10.52;100.00;99468.75;4956985;28;19929;-85
2023/10/30 09:06:43;;;;;;;;;;;;;;;10.49;100.00;99474.81;4972276;28;19937;-83
2023/10/30 09:09:11;;;;;;;;;;;;;;;10.61;100.00;99477.00;4971097;28;19929;-86
2023/10/30 09:11:41;;;;;;;;;;;;;;;10.67;100.00;99486.63;4957847;28;20318;-88
2023/10/30 09:14:14;;;;;;;;;;;;;;;10.78;100.00;99492.63;4974506;28;19954;-87
2023/10/30 09:16:47;;;;;;;;;;;;;;;10.75;100.00;99488.59;4973043;28;19930;-87
2023/10/30 09:19:20;;;;;;;;;;;;;;;10.81;100.00;99486.56;4966631;28;20383;-85
2023/10/30 09:21:48;;;;;;;;;;;;;;;10.91;100.00;99483.59;4957427;28;19928;-86
2023/10/30 09:24:21;;;;;;;;;;;;;;;10.80;100.00;99493.94;4970689;28;19925;-87
2023/10/30 09:26:50;;;;;;;;;;;;;;;10.91;100.00;99510.81;4962576;28;19936;-89
2023/10/30 09:29:18;;;;;;;;;;;;;;;10.96;100.00;99510.66;4945737;28;20495;-87
2023/10/30 09:31:51;;;;;;;;;;;;;;;11.01;100.00;99509.75;4952493;28;19930;-88
2023/10/30 09:34:19;;;;;;;;;;;;;;;11.12;100.00;99510.28;4951026;28;19937;-89
2023/10/30 09:36:47;;;;;;;;;;;;;;;11.14;100.00;99516.22;4966749;28;19965;-87
2023/10/30 09:39:20;;;;;;;;;;;;;;;11.17;100.00;99516.41;4970627;28;19925;-88
2023/10/30 09:41:49;;;;;;;;;;;;;;;11.20;100.00;99510.31;4972418;28;19936;-85
2023/10/30 09:44:17;;;;;;;;;;;;;;;11.19;100.00;99506.00;4974578;28;19929;-86
2023/10/30 09:46:51;;;;;;;;;;;;;;;11.20;100.00;99504.88;4969080;28;21823;-85
2023/10/30 09:49:20;;;;;;;;;;;;;;;11.21;100.00;99497.50;4980151;28;19998;-84
2023/10/30 09:51:49;;;;;;;;;;;;;;;11.27;100.00;99500.88;4978717;28;20772;-90
2023/10/30 09:54:22;;;;;;;;;;;;;;;11.30;100.00;99506.53;4969886;28;19930;-89
2023/10/30 09:56:51;;;;;;;;;;;;;;;11.38;100.00;99504.97;4971876;28;19941;-87
2023/10/30 09:59:20;;;;;;;;;;;;;;;11.39;100.00;99507.38;4952830;28;19937;-87
2023/10/30 10:01:53;;;;;;;;;;;;;;;11.44;100.00;99511.06;4970220;28;19930;-86
2023/10/30 10:04:21;;;;;;;;;;;;;;;11.54;100.00;99513.50;4969450;28;19941;-89
2023/10/30 10:06:51;;;;;;;;;;;;;;;11.56;100.00;99517.53;4972450;28;19933;-89
2023/10/30 10:09:24;;;;;;;;;;;;;;;11.68;100.00;99513.41;4968017;28;19937;-88
2023/10/30 10:11:54;;;;;;;;;;;;;;;11.74;100.00;99520.31;4952731;28;19930;-85
2023/10/30 10:14:30;;;;;;;;;;;;;;;11.73;100.00;99518.72;4970541;28;19954;-89
2023/10/30 10:16:58;;;;;;;;;;;;;;;11.82;100.00;99507.81;4973929;28;20035;-86
2023/10/30 10:19:26;;;;;;;;;;;;;;;11.70;100.00;99522.06;4968449;28;19937;-87
2023/10/30 10:21:59;;;;;;;;;;;;;;;11.64;100.00;99520.59;4976684;28;19922;-88
2023/10/30 10:24:28;;;;;;;;;;;;;;;11.73;100.00;99502.34;4976387;28;20681;-87
2023/10/30 10:27:04;;;;;;;;;;;;;;;11.72;100.00;99515.19;4963716;28;19930;-90
2023/10/30 10:29:37;;;;;;;;;;;;;;;11.70;100.00;99525.59;4947358;28;20626;-87
2023/10/30 10:32:05;;;;;;;;;;;;;;;11.78;100.00;99529.47;4949093;28;19930;-86
2023/10/30 10:34:34;;;;;;;;;;;;;;;11.73;100.00;99522.22;4966679;28;20560;-88
2023/10/30 10:37:02;;;;;;;;;;;;;;;11.72;100.00;99526.09;4967602;28;19941;-86
2023/10/30 10:39:46;;;;;;;;;;;;;;;11.85;100.00;99523.56;4958265;28;19930;-86
2023/10/30 10:42:17;;;;;;;;;;;;;;;11.86;100.00;99519.69;4963983;28;19922;-89
2023/10/30 10:44:45;;;;;;;;;;;;;;;11.90;100.00;99510.59;4965468;28;21513;-88
2023/10/30 10:47:13;;;;;;;;;;;;;;;11.99;100.00;99510.63;4964104;28;19922;-83
2023/10/30 10:49:42;;;;;;;;;;;;;;;12.06;100.00;99519.13;4971816;28;19930;-86
2023/10/30 10:52:15;;;;;;;;;;;;;;;12.05;100.00;99514.00;4962573;28;19929;-87
2023/10/30 10:54:46;;;;;;;;;;;;;;;12.16;100.00;99514.50;4949247;28;19930;-87
2023/10/30 10:57:19;;;;;;;;;;;;;;;12.14;100.00;99520.28;4968709;28;19930;-90
2023/10/30 10:59:48;;;;;;;;;;;;;;;12.11;100.00;99523.66;4968804;28;19929;-87
2023/10/30 11:02:24;;;;;;;;;;;;;;;12.19;100.00;99511.94;4965774;28;19929;-83
2023/10/30 11:04:58;;;;;;;;;;;;;;;12.27;100.00;99512.28;4966203;28;19930;-90
2023/10/30 11:07:29;;;;;;;;;;;;;;;12.30;100.00;99501.50;4956149;28;19922;-85
2023/10/30 11:09:59;;;;;;;;;;;;;;;12.40;100.00;99506.66;4966767;28;19929;-88
2023/10/30 11:12:37;;;;;;;;;;;;;;;12.45;100.00;99504.91;4967983;28;19930;-88
2023/10/30 11:15:12;;;;;;;;;;;;;;;12.48;100.00;99506.97;4961880;28;19937;-84
2023/10/30 11:17:39;;;;;;;;;;;;;;;12.40;100.00;99495.75;4956194;28;20018;-88
2023/10/30 11:20:09;;;;;;;;;;;;;;;12.27;100.00;99502.16;4945016;28;19930;-86
2023/10/30 11:22:38;;;;;;;;;;;;;;;12.21;100.00;99501.50;4940337;28;20813;-89
2023/10/30 11:25:06;;;;;;;;;;;;;;;12.10;100.00;99493.94;4969549;28;19937;-88
2023/10/30 11:27:36;;;;;;;;;;;;;;;12.21;100.00;99498.78;4943108;28;20322;-86
2023/10/30 11:30:06;;;;;;;;;;;;;;;12.14;100.00;99512.09;4965157;28;19937;-88
2023/10/30 11:32:56;;;;;;;;;;;;;;;12.14;100.00;99506.66;4965869;28;19930;-88
2023/10/30 11:35:25;;;;;;;;;;;;;;;12.19;100.00;99490.13;4963491;28;19929;-87
2023/10/30 11:37:53;;;;;;;;;;;;;;;12.21;100.00;99498.78;4965770;28;20639;-87
2023/10/30 11:40:21;;;;;;;;;;;;;;;12.24;100.00;99489.16;4967926;28;19936;-83
2023/10/30 11:42:57;;;;;;;;;;;;;;;12.12;100.00;99489.00;4965102;28;19930;-85
2023/10/30 11:45:32;;;;;;;;;;;;;;;12.08;100.00;99491.53;4969746;28;19922;-85
2023/10/30 11:48:05;;;;;;;;;;;;;;;11.97;100.00;99493.78;4956614;28;19928;-88
2023/10/30 11:50:33;;;;;;;;;;;;;;;11.93;100.00;99489.25;4962319;28;19930;-87
2023/10/30 11:53:08;;;;;;;;;;;;;;;11.96;100.00;99488.63;4950666;28;19930;-88
2023/10/30 11:55:36;;;;;;;;;;;;;;;11.92;100.00;99480.28;4961186;28;19933;-87
2023/10/30 11:58:06;;;;;;;;;;;;;;;12.10;100.00;99481.13;4964836;28;19941;-86
2023/10/30 12:00:40;;;;;;;;;;;;;;;12.14;100.00;99482.09;4944828;28;19942;-86
2023/10/30 12:03:09;;;;;;;;;;;;;;;12.26;100.00;99486.91;4965075;28;20661;-87
2023/10/30 12:05:37;;;;;;;;;;;;;;;12.24;100.00;99489.16;4968321;28;19930;-86
2023/10/30 12:08:10;;;;;;;;;;;;;;;12.35;100.00;99490.44;4953486;28;19930;-89
2023/10/30 12:10:39;;;;;;;;;;;;;;;12.34;100.00;99482.59;4960025;28;19941;-87
2023/10/30 12:13:13;;;;;;;;;;;;;;;12.24;100.00;99484.50;4957074;28;19937;-84
2023/10/30 12:15:46;;;;;;;;;;;;;;;12.18;100.00;99479.53;4969108;28;19978;-89
2023/10/30 12:18:14;;;;;;;;;;;;;;;12.23;100.00;99474.72;4952936;28;20759;-87
2023/10/30 12:20:42;;;;;;;;;;;;;;;12.20;100.00;99480.81;4970034;28;20638;-87
2023/10/30 12:23:10;;;;;;;;;;;;;;;12.20;100.00;99472.63;4958331;28;19929;-90
2023/10/30 12:25:38;;;;;;;;;;;;;;;12.27;100.00;99476.81;4957035;28;19944;-84
2023/10/30 12:28:06;;;;;;;;;;;;;;;12.28;100.00;99484.69;4953826;28;20405;-88
2023/10/30 12:30:41;;;;;;;;;;;;;;;12.30;100.00;99487.88;4959478;28;21259;-87
2023/10/30 12:33:13;;;;;;;;;;;;;;;12.33;100.00;99475.53;4957931;28;19929;-87
2023/10/30 12:35:56;;;;;;;;;;;;;;;12.41;100.00;99474.72;4960083;28;19925;-89
2023/10/30 12:38:29;;;;;;;;;;;;;;;12.42;100.00;99474.38;4964647;28;19930;-86
2023/10/30 12:41:06;;;;;;;;;;;;;;;12.55;100.00;99475.38;4968500;28;19937;-88
2023/10/30 12:43:38;;;;;;;;;;;;;;;12.38;100.00;99473.44;4978270;28;20382;-85
2023/10/30 12:46:08;;;;;;;;;;;;;;;12.50;100.00;99461.88;4958307;28;20613;-88
2023/10/30 12:48:36;;;;;;;;;;;;;;;12.42;100.00;99458.03;4966201;28;19930;-89
2023/10/30 12:51:04;;;;;;;;;;;;;;;12.47;100.00;99453.53;4967066;28;21199;-85
2023/10/30 12:53:34;;;;;;;;;;;;;;;12.40;100.00;99457.56;4970792;28;19930;-89
2023/10/30 12:56:07;;;;;;;;;;;;;;;12.47;100.00;99448.06;4963626;28;20290;-84
2023/10/30 12:58:40;;;;;;;;;;;;;;;12.41;100.00;99450.97;4974097;28;19944;-85
2023/10/30 13:01:09;;;;;;;;;;;;;;;12.36;100.00;99450.31;4963689;28;21362;-87